Time;durP1;ratioP1;P1;durP2;ratioP2;P2;SDS_P1;SDS_P2;PMS_P1;PMS_P2;Temp;Humidity;BMP_temperature;BMP_pressure;BME280_temperature;BME280_humidity;BME280_pressure;Samples;Min_cycle;Max_cycle;Signal;HPM_P1;HPM_P2
2021/11/12 00:02:37;;;;;;;0.77;0.77;;;0.70;99.90;;;;;;5048774;28;20220;-83
2021/11/12 00:13:18;;;;;;;0.73;0.73;;;0.90;99.90;;;;;;5083530;28;20254;-70
2021/11/12 00:15:50;;;;;;;2.03;1.88;;;0.80;99.90;;;;;;5059024;28;20199;-70
2021/11/12 00:18:18;;;;;;;0.70;0.70;;;0.80;99.90;;;;;;5089621;28;20195;-70
2021/11/12 00:20:45;;;;;;;0.70;0.70;;;0.80;99.90;;;;;;5072595;28;20207;-70
2021/11/12 00:23:12;;;;;;;0.70;0.70;;;0.80;99.90;;;;;;5072837;28;20575;-71
2021/11/12 00:25:39;;;;;;;0.68;0.68;;;0.90;99.90;;;;;;5090207;28;20303;-71
2021/11/12 00:28:05;;;;;;;0.60;0.60;;;0.90;99.90;;;;;;5091075;28;20662;-70
2021/11/12 00:31:22;;;;;;;0.60;0.60;;;1.10;99.90;;;;;;5090215;28;20246;-70
2021/11/12 00:38:50;;;;;;;0.60;0.60;;;1.10;99.90;;;;;;5077127;28;20572;-71
2021/11/12 00:43:48;;;;;;;0.60;0.60;;;1.00;99.90;;;;;;5090579;28;20574;-71
2021/11/12 00:49:11;;;;;;;0.70;0.70;;;0.70;99.90;;;;;;5060474;28;20218;-70
2021/11/12 00:54:08;;;;;;;0.60;0.60;;;0.80;99.90;;;;;;5093347;28;20662;-69
2021/11/12 00:56:34;;;;;;;0.70;0.70;;;0.90;99.90;;;;;;5075547;28;20200;-69
2021/11/12 00:59:04;;;;;;;0.70;0.70;;;0.90;99.90;;;;;;5094246;28;20207;-70
2021/11/12 01:01:32;;;;;;;0.55;0.55;;;0.80;99.90;;;;;;5075919;28;20699;-71
2021/11/12 01:04:01;;;;;;;0.70;0.70;;;0.80;99.90;;;;;;5075866;28;20287;-71
2021/11/12 01:06:27;;;;;;;0.73;0.73;;;0.70;99.90;;;;;;5073933;28;20675;-71
2021/11/12 01:08:53;;;;;;;0.70;0.70;;;0.70;99.90;;;;;;5094387;28;20663;-71
2021/11/12 01:11:21;;;;;;;0.68;0.68;;;0.70;99.90;;;;;;5058248;28;20204;-71
2021/11/12 01:13:50;;;;;;;0.70;0.70;;;0.80;99.90;;;;;;5093080;28;20200;-71
2021/11/12 01:16:16;;;;;;;0.70;0.70;;;1.00;99.90;;;;;;5093363;28;20204;-71
2021/11/12 01:18:42;;;;;;;0.80;0.80;;;0.90;99.90;;;;;;5093397;28;20303;-71
2021/11/12 01:21:11;;;;;;;0.70;0.70;;;0.90;99.90;;;;;;5111130;28;20294;-71
2021/11/12 01:23:40;;;;;;;0.73;0.73;;;1.00;99.90;;;;;;5093081;28;20234;-71
2021/11/12 01:26:06;;;;;;;0.70;0.70;;;1.10;99.90;;;;;;5092376;28;20295;-71
2021/11/12 01:28:33;;;;;;;0.77;0.77;;;1.20;99.90;;;;;;5092245;28;20211;-71
2021/11/12 01:31:00;;;;;;;0.70;0.70;;;1.20;99.90;;;;;;5075330;28;20204;-71
2021/11/12 01:33:26;;;;;;;0.60;0.60;;;1.40;99.90;;;;;;5093546;28;20217;-71
2021/11/12 01:35:54;;;;;;;0.70;0.70;;;1.30;99.90;;;;;;5092236;28;20686;-71
2021/11/12 01:38:20;;;;;;;0.60;0.60;;;1.40;99.90;;;;;;5075257;28;20642;-71
2021/11/12 01:40:47;;;;;;;0.65;0.65;;;1.30;99.90;;;;;;5093807;28;20202;-71
2021/11/12 01:43:24;;;;;;;0.70;0.70;;;1.10;99.90;;;;;;5092040;28;20207;-71
2021/11/12 01:59:20;;;;;;;0.75;0.75;;;0.50;99.90;;;;;;5075725;28;20705;-71
2021/11/12 02:01:57;;;;;;;0.60;0.60;;;0.50;99.90;;;;;;5093349;28;20640;-71
2021/11/12 02:04:29;;;;;;;0.85;0.85;;;0.50;99.90;;;;;;5074602;28;20287;-71
2021/11/12 02:06:57;;;;;;;0.70;0.70;;;0.40;99.90;;;;;;5074511;28;20718;-71
2021/11/12 02:09:23;;;;;;;0.65;0.65;;;0.50;99.90;;;;;;5073190;28;20197;-71
2021/11/12 02:11:56;;;;;;;0.80;0.80;;;0.40;99.90;;;;;;5091659;28;20695;-71
2021/11/12 02:14:24;;;;;;;0.80;0.80;;;0.30;99.90;;;;;;5084964;28;20197;-71
2021/11/12 02:17:18;;;;;;;0.80;0.80;;;0.20;99.90;;;;;;5091626;28;20199;-71
2021/11/12 02:19:56;;;;;;;0.70;0.70;;;0.20;99.90;;;;;;5059675;28;20484;-71
2021/11/12 02:22:25;;;;;;;0.73;0.73;;;0.20;99.90;;;;;;5073046;28;20623;-71
2021/11/12 02:25:01;;;;;;;0.63;0.63;;;0.10;99.90;;;;;;5092695;28;20203;-71
2021/11/12 02:27:35;;;;;;;0.70;0.70;;;0.00;99.90;;;;;;5092416;28;20208;-71
2021/11/12 02:30:01;;;;;;;0.80;0.80;;;-0.10;99.90;;;;;;5092658;28;20192;-71
2021/11/12 02:32:30;;;;;;;0.90;0.90;;;-0.20;99.90;;;;;;5092447;28;20227;-69
2021/11/12 02:34:59;;;;;;;0.80;0.80;;;-0.20;99.90;;;;;;5091016;28;20607;-69
2021/11/12 02:37:27;;;;;;;0.65;0.65;;;-0.30;99.90;;;;;;5090692;28;20640;-69
2021/11/12 02:39:54;;;;;;;0.68;0.68;;;-0.30;99.90;;;;;;5092477;28;20199;-69
2021/11/12 02:42:21;;;;;;;0.80;0.80;;;-0.30;99.90;;;;;;5090893;28;20278;-69
2021/11/12 02:44:47;;;;;;;0.70;0.70;;;-0.30;99.90;;;;;;5091376;28;20658;-69
2021/11/12 02:47:16;;;;;;;0.70;0.70;;;-0.40;99.90;;;;;;5092267;28;20597;-71
2021/11/12 02:49:43;;;;;;;0.80;0.80;;;-0.40;99.90;;;;;;5092691;28;20737;-71
2021/11/12 02:52:10;;;;;;;0.70;0.70;;;-0.40;99.90;;;;;;5067916;28;20556;-71
2021/11/12 02:54:38;;;;;;;0.85;0.85;;;-0.40;99.90;;;;;;5072462;28;20609;-71
2021/11/12 02:57:04;;;;;;;0.75;0.75;;;-0.40;99.90;;;;;;5072625;28;20674;-71
2021/11/12 02:59:31;;;;;;;0.80;0.80;;;-0.50;99.90;;;;;;5073630;28;20203;-71
2021/11/12 03:02:03;;;;;;;0.80;0.80;;;-0.50;99.90;;;;;;5088253;28;20630;-71
2021/11/12 03:04:30;;;;;;;0.65;0.65;;;-0.50;99.90;;;;;;5091724;28;20559;-71
2021/11/12 03:06:57;;;;;;;0.80;0.80;;;-0.50;99.90;;;;;;5068156;28;20777;-71
2021/11/12 03:09:28;;;;;;;0.80;0.80;;;-0.60;99.90;;;;;;5091814;28;20196;-71
2021/11/12 03:11:56;;;;;;;0.88;0.88;;;-0.70;99.90;;;;;;5091764;28;20196;-71
2021/11/12 03:14:22;;;;;;;0.90;0.90;;;-0.70;99.90;;;;;;5090128;28;20666;-71
2021/11/12 03:16:50;;;;;;;0.70;0.70;;;-0.70;99.90;;;;;;5091143;28;20208;-71
2021/11/12 03:19:17;;;;;;;0.70;0.70;;;-0.70;99.90;;;;;;5072126;28;20200;-71
2021/11/12 03:21:43;;;;;;;0.90;0.90;;;-0.70;99.90;;;;;;5089937;28;20654;-71
2021/11/12 03:27:19;;;;;;;0.70;0.70;;;-0.70;99.90;;;;;;5068407;28;20250;-71
2021/11/12 04:02:14;;;;;;;0.68;0.68;;;-1.20;99.90;;;;;;5089927;28;20266;-71
2021/11/12 05:44:24;;;;;;;0.73;0.73;;;-2.00;99.90;;;;;;5093717;28;20202;-72
2021/11/12 05:55:03;;;;;;;0.70;0.70;;;-2.00;99.90;;;;;;5092100;28;20204;-71
2021/11/12 05:55:10;;;;;;;0.70;0.70;;;-2.00;99.90;;;;;;5091863;28;20207;-72
2021/11/12 05:57:38;;;;;;;0.93;0.93;;;-2.00;99.90;;;;;;5070378;28;20213;-71
2021/11/12 06:00:08;;;;;;;0.90;0.90;;;-2.10;99.90;;;;;;5089681;28;20261;-71
2021/11/12 06:02:33;;;;;;;0.80;0.80;;;-2.10;99.90;;;;;;5091640;28;20207;-71
2021/11/12 06:04:59;;;;;;;0.80;0.80;;;-2.10;99.90;;;;;;5091914;28;20208;-71
2021/11/12 06:07:25;;;;;;;0.80;0.80;;;-2.10;99.90;;;;;;5074751;28;20320;-71
2021/11/12 06:09:51;;;;;;;0.70;0.70;;;-2.10;99.90;;;;;;5093278;28;20204;-71
2021/11/12 06:12:16;;;;;;;0.80;0.80;;;-2.10;99.90;;;;;;5093100;28;20239;-71
2021/11/12 06:14:42;;;;;;;0.90;0.90;;;-1.90;99.90;;;;;;5091470;28;20679;-71
2021/11/12 06:17:08;;;;;;;0.80;0.80;;;-1.70;99.90;;;;;;5075026;28;20655;-71
2021/11/12 06:19:34;;;;;;;0.70;0.70;;;-1.60;99.90;;;;;;5092829;28;20651;-71
2021/11/12 06:22:00;;;;;;;0.80;0.80;;;-1.50;99.90;;;;;;5075050;28;20207;-71
2021/11/12 06:24:26;;;;;;;0.80;0.80;;;-1.50;99.90;;;;;;5091410;28;20204;-71
2021/11/12 06:26:53;;;;;;;0.90;0.90;;;-1.60;99.90;;;;;;5091602;28;20286;-71
2021/11/12 06:29:19;;;;;;;0.70;0.70;;;-1.70;99.90;;;;;;5072035;28;20663;-71
2021/11/12 06:31:44;;;;;;;0.80;0.80;;;-1.70;99.90;;;;;;5092648;28;20196;-71
2021/11/12 06:34:10;;;;;;;0.73;0.73;;;-1.80;99.90;;;;;;5074421;28;20688;-70
2021/11/12 06:36:36;;;;;;;0.82;0.82;;;-1.90;99.90;;;;;;5092442;28;20294;-72
2021/11/12 06:39:05;;;;;;;0.85;0.85;;;-2.00;99.90;;;;;;5091246;28;20546;-72
2021/11/12 06:49:34;;;;;;;0.80;0.80;;;-2.10;99.90;;;;;;5092412;28;20557;-74
2021/11/12 06:52:00;;;;;;;0.70;0.70;;;-2.00;99.90;;;;;;5090102;28;20254;-77
2021/11/12 06:54:27;;;;;;;0.90;0.90;;;-1.90;99.90;;;;;;5073963;28;20741;-72
2021/11/12 06:56:53;;;;;;;0.70;0.70;;;-1.90;99.90;;;;;;5090706;28;20257;-71
2021/11/12 06:59:19;;;;;;;0.65;0.65;;;-1.90;99.90;;;;;;5100335;28;20211;-71
2021/11/12 07:01:47;;;;;;;0.90;0.90;;;-2.00;99.90;;;;;;5081115;28;20200;-71
2021/11/12 07:04:13;;;;;;;0.82;0.82;;;-2.00;99.90;;;;;;5092202;28;20208;-70
2021/11/12 07:06:39;;;;;;;0.90;0.90;;;-2.00;99.90;;;;;;5091472;28;20293;-70
2021/11/12 07:09:07;;;;;;;0.80;0.80;;;-2.00;99.90;;;;;;5091998;28;20204;-70
2021/11/12 07:11:33;;;;;;;0.80;0.80;;;-2.00;99.90;;;;;;5090457;28;20230;-70
2021/11/12 07:13:59;;;;;;;0.80;0.80;;;-2.10;99.90;;;;;;5090470;28;20271;-70
2021/11/12 07:16:25;;;;;;;0.80;0.80;;;-2.10;99.90;;;;;;5068795;28;20263;-70
2021/11/12 07:18:54;;;;;;;0.80;0.80;;;-2.10;99.90;;;;;;5090635;28;20215;-70
2021/11/12 07:21:24;;;;;;;0.90;0.90;;;-2.20;99.90;;;;;;5091551;28;20227;-70
2021/11/12 07:23:50;;;;;;;0.70;0.70;;;-2.20;99.90;;;;;;5091989;28;20716;-70
2021/11/12 07:26:16;;;;;;;0.90;0.90;;;-2.20;99.90;;;;;;5109185;28;20710;-70
2021/11/12 07:28:44;;;;;;;0.85;0.85;;;-2.20;99.90;;;;;;5090354;28;20192;-70
2021/11/12 07:31:10;;;;;;;0.73;0.73;;;-2.20;99.90;;;;;;5091017;28;20196;-71
2021/11/12 07:33:36;;;;;;;1.23;1.13;;;-2.20;99.90;;;;;;5073159;28;20200;-70
2021/11/12 07:36:16;;;;;;;0.82;0.82;;;-2.10;99.90;;;;;;5069992;28;20211;-69
2021/11/12 07:38:55;;;;;;;1.27;1.20;;;-2.10;99.90;;;;;;5090595;28;20207;-69
2021/11/12 07:48:59;;;;;;;0.75;0.75;;;-2.10;99.90;;;;;;5091709;28;20204;-68
2021/11/12 07:51:25;;;;;;;0.80;0.80;;;-2.10;99.90;;;;;;5091563;28;20199;-69
2021/11/12 07:53:50;;;;;;;0.80;0.80;;;-2.00;99.90;;;;;;5091318;28;20200;-69
2021/11/12 07:56:16;;;;;;;0.80;0.80;;;-2.00;99.90;;;;;;5090889;28;20273;-68
2021/11/12 07:58:42;;;;;;;0.90;0.90;;;-2.00;99.90;;;;;;5091085;28;20658;-69
2021/11/12 08:01:08;;;;;;;0.85;0.85;;;-2.00;99.90;;;;;;5091157;28;20728;-70
2021/11/12 08:03:34;;;;;;;1.30;1.25;;;-1.90;99.90;;;;;;5093698;28;20199;-71
2021/11/12 08:06:02;;;;;;;0.70;0.70;;;-1.90;99.90;;;;;;5076777;28;20554;-71
2021/11/12 08:08:31;;;;;;;0.90;0.90;;;-1.80;99.90;;;;;;5092516;28;20259;-71
2021/11/12 08:11:01;;;;;;;0.73;0.73;;;-1.80;99.90;;;;;;5073639;28;20550;-71
2021/11/12 08:18:41;;;;;;;1.35;1.20;;;-1.70;99.90;;;;;;5074934;28;20231;-70
2021/11/12 08:21:23;;;;;;;0.70;0.70;;;-1.60;99.90;;;;;;5067651;28;20298;-71
2021/11/12 08:24:07;;;;;;;0.80;0.80;;;-1.60;99.90;;;;;;5082164;28;20206;-70
2021/11/12 08:26:45;;;;;;;0.68;0.68;;;-1.60;99.90;;;;;;5071987;28;20207;-70
2021/11/12 08:31:46;;;;;;;0.75;0.75;;;-1.40;99.90;;;;;;5079992;28;20211;-73
2021/11/12 08:34:50;;;;;;;0.82;0.82;;;-1.40;99.90;;;;;;5084223;28;20196;-72
2021/11/12 08:37:18;;;;;;;0.80;0.80;;;-1.20;99.90;;;;;;5069746;28;20300;-72
2021/11/12 08:42:17;;;;;;;1.13;1.05;;;-1.10;99.90;;;;;;5077797;28;20211;-73
2021/11/12 08:44:47;;;;;;;0.90;0.90;;;-1.00;99.90;;;;;;5074431;28;20200;-72
2021/11/12 08:47:16;;;;;;;0.88;0.88;;;-1.00;99.90;;;;;;5074303;28;20212;-71
2021/11/12 08:49:45;;;;;;;0.60;0.60;;;-0.90;99.90;;;;;;5055978;28;20605;-72
2021/11/12 08:52:15;;;;;;;0.70;0.70;;;-0.80;99.90;;;;;;5072703;28;20208;-72
2021/11/12 08:54:44;;;;;;;0.85;0.85;;;-0.70;99.90;;;;;;5074024;28;20192;-72
2021/11/12 08:57:11;;;;;;;0.70;0.70;;;-0.70;99.90;;;;;;5074069;28;20296;-73
2021/11/12 08:59:40;;;;;;;0.90;0.90;;;-0.60;99.90;;;;;;5062845;28;20675;-73
2021/11/12 09:02:13;;;;;;;0.70;0.70;;;-0.50;99.90;;;;;;5065860;28;20228;-72
2021/11/12 09:04:39;;;;;;;0.90;0.90;;;-0.40;99.90;;;;;;5073488;28;20204;-71
2021/11/12 09:07:05;;;;;;;0.88;0.88;;;-0.30;99.90;;;;;;5063403;28;20677;-70
2021/11/12 09:09:33;;;;;;;0.70;0.70;;;-0.20;99.90;;;;;;5092881;28;20211;-72
2021/11/12 09:11:59;;;;;;;0.77;0.77;;;-0.10;99.90;;;;;;5093054;28;20667;-72
2021/11/12 09:14:27;;;;;;;0.80;0.80;;;0.20;99.90;;;;;;5092876;28;20203;-71
2021/11/12 09:16:52;;;;;;;0.88;0.88;;;0.40;99.90;;;;;;5094140;28;20321;-72
2021/11/12 09:19:18;;;;;;;0.70;0.70;;;0.70;99.90;;;;;;5094038;28;20200;-72
2021/11/12 09:21:47;;;;;;;1.00;0.95;;;0.90;99.90;;;;;;5092590;28;20228;-72
2021/11/12 09:24:13;;;;;;;2.15;1.60;;;1.20;99.90;;;;;;5094055;28;20269;-72
2021/11/12 09:26:40;;;;;;;1.65;1.33;;;1.40;99.90;;;;;;5072651;28;20243;-71
2021/11/12 09:29:11;;;;;;;0.60;0.60;;;1.60;99.90;;;;;;5088131;28;20201;-72
2021/11/12 09:31:38;;;;;;;1.20;1.20;;;1.80;99.90;;;;;;5093025;28;20192;-72
2021/11/12 09:34:07;;;;;;;0.75;0.75;;;1.90;99.90;;;;;;5093600;28;20204;-70
2021/11/12 09:36:33;;;;;;;0.90;0.90;;;2.00;99.90;;;;;;5075278;28;20200;-69
2021/11/12 09:38:58;;;;;;;0.60;0.60;;;2.00;99.90;;;;;;5093947;28;20227;-69
2021/11/12 09:41:25;;;;;;;0.98;0.98;;;2.00;99.90;;;;;;5092429;28;20210;-70
2021/11/12 09:43:51;;;;;;;0.73;0.73;;;2.20;99.90;;;;;;5093632;28;20651;-70
2021/11/12 09:46:16;;;;;;;0.70;0.70;;;2.30;99.90;;;;;;5108017;28;20211;-70
2021/11/12 09:48:43;;;;;;;1.30;1.00;;;2.40;99.90;;;;;;5096331;28;20615;-71
2021/11/12 09:51:11;;;;;;;0.65;0.65;;;2.60;99.90;;;;;;5092496;28;20204;-70
2021/11/12 09:53:38;;;;;;;1.15;1.05;;;2.70;99.90;;;;;;5093251;28;20227;-70
2021/11/12 09:56:07;;;;;;;0.75;0.75;;;2.80;99.90;;;;;;5093321;28;20204;-70
2021/11/12 09:58:33;;;;;;;0.90;0.90;;;2.80;99.90;;;;;;5093256;28;20200;-70
2021/11/12 10:01:00;;;;;;;0.63;0.63;;;2.80;99.90;;;;;;5074839;28;20246;-70
2021/11/12 10:03:43;;;;;;;0.60;0.60;;;3.00;99.90;;;;;;5091792;28;20200;-69
2021/11/12 10:06:25;;;;;;;0.65;0.65;;;3.10;99.90;;;;;;5102801;28;20208;-70
2021/11/12 10:08:52;;;;;;;0.57;0.57;;;3.10;99.90;;;;;;5078262;28;20216;-69
2021/11/12 10:11:29;;;;;;;0.70;0.70;;;3.10;99.90;;;;;;5072701;28;20246;-69
2021/11/12 10:14:09;;;;;;;0.70;0.70;;;3.10;99.90;;;;;;5067781;28;20306;-70
2021/11/12 10:16:37;;;;;;;1.60;1.33;;;3.20;99.90;;;;;;5071230;28;20246;-70
2021/11/12 10:19:11;;;;;;;0.60;0.60;;;3.30;99.90;;;;;;5072648;28;20208;-69
2021/11/12 10:21:49;;;;;;;0.50;0.50;;;3.40;99.90;;;;;;5070623;28;20678;-69
2021/11/12 10:24:35;;;;;;;0.80;0.80;;;3.50;99.90;;;;;;5078044;28;20283;-70
2021/11/12 10:27:01;;;;;;;0.50;0.50;;;3.50;99.90;;;;;;5072421;28;20667;-70
2021/11/12 10:29:31;;;;;;;0.68;0.68;;;3.60;99.90;;;;;;5072152;28;20220;-70
2021/11/12 10:32:05;;;;;;;0.60;0.60;;;3.60;99.90;;;;;;5077989;28;20208;-70
2021/11/12 10:34:33;;;;;;;0.80;0.80;;;3.70;99.90;;;;;;5072082;28;20196;-71
2021/11/12 10:37:03;;;;;;;0.90;0.90;;;3.70;99.90;;;;;;5072300;28;20219;-71
2021/11/12 10:39:35;;;;;;;0.63;0.63;;;3.70;99.90;;;;;;5072132;28;20201;-71
2021/11/12 10:42:08;;;;;;;0.60;0.60;;;3.70;99.90;;;;;;5072162;28;20205;-71
2021/11/12 10:44:49;;;;;;;0.70;0.70;;;3.80;99.90;;;;;;5072088;28;20215;-69
2021/11/12 10:47:16;;;;;;;0.70;0.70;;;3.80;99.90;;;;;;5072125;28;20679;-69
2021/11/12 10:49:44;;;;;;;0.60;0.60;;;3.90;99.90;;;;;;5072006;28;20282;-69
2021/11/12 10:52:20;;;;;;;0.80;0.80;;;3.90;99.90;;;;;;5072082;28;20196;-68
2021/11/12 10:55:15;;;;;;;0.52;0.52;;;3.90;99.90;;;;;;5070718;28;20647;-69
2021/11/12 10:57:47;;;;;;;0.57;0.57;;;3.90;99.90;;;;;;5071690;28;20208;-69
2021/11/12 11:00:32;;;;;;;0.70;0.70;;;3.80;99.90;;;;;;5071870;28;20208;-69
2021/11/12 11:03:06;;;;;;;0.60;0.60;;;3.80;99.90;;;;;;5071463;28;20745;-69
2021/11/12 11:05:51;;;;;;;0.80;0.80;;;3.80;99.90;;;;;;5070744;28;20635;-69
2021/11/12 11:08:25;;;;;;;0.60;0.60;;;3.70;99.90;;;;;;5087701;28;20242;-69
2021/11/12 11:11:06;;;;;;;0.90;0.90;;;3.90;99.90;;;;;;5074851;28;20200;-71
2021/11/12 11:13:35;;;;;;;0.80;0.80;;;4.00;99.90;;;;;;5075550;28;20215;-71
2021/11/12 11:16:03;;;;;;;0.70;0.70;;;4.00;99.90;;;;;;5091763;28;20200;-71
2021/11/12 11:18:40;;;;;;;0.80;0.80;;;4.20;99.90;;;;;;5108996;28;20254;-71
2021/11/12 11:23:48;;;;;;;0.60;0.60;;;4.30;99.90;;;;;;5072758;28;20240;-71
2021/11/12 11:26:21;;;;;;;0.43;0.43;;;4.10;99.90;;;;;;5088498;28;20225;-70
2021/11/12 11:28:52;;;;;;;0.63;0.63;;;4.00;99.90;;;;;;5055117;28;20693;-69
2021/11/12 11:31:18;;;;;;;0.60;0.60;;;4.10;99.90;;;;;;5074862;28;20287;-70
2021/11/12 11:33:47;;;;;;;0.60;0.60;;;4.20;99.90;;;;;;5091407;28;20550;-70
2021/11/12 11:36:24;;;;;;;0.60;0.60;;;4.20;99.90;;;;;;5071676;28;20645;-69
2021/11/12 11:38:52;;;;;;;0.60;0.60;;;4.30;99.90;;;;;;5088608;28;20203;-68
2021/11/12 11:41:20;;;;;;;0.60;0.60;;;4.40;99.90;;;;;;5089330;28;20673;-69
2021/11/12 11:43:47;;;;;;;0.60;0.60;;;4.50;99.90;;;;;;5090450;28;20227;-69
2021/11/12 11:46:29;;;;;;;0.60;0.60;;;4.50;99.90;;;;;;5073096;28;20718;-69
2021/11/12 11:48:58;;;;;;;0.70;0.70;;;4.50;99.90;;;;;;5091123;28;20204;-69
2021/11/12 11:51:36;;;;;;;0.80;0.80;;;4.40;99.90;;;;;;5091329;28;20262;-69
2021/11/12 11:54:09;;;;;;;0.80;0.80;;;4.20;99.90;;;;;;5073014;28;20716;-69
2021/11/12 11:56:46;;;;;;;0.77;0.77;;;4.00;99.90;;;;;;5054206;28;20611;-69
2021/11/12 11:59:29;;;;;;;0.60;0.60;;;3.90;99.90;;;;;;5087952;28;20200;-69
2021/11/12 12:02:03;;;;;;;0.70;0.70;;;3.70;99.90;;;;;;5068131;28;20662;-70
2021/11/12 12:04:40;;;;;;;0.70;0.70;;;3.60;99.90;;;;;;5089589;28;20232;-71
2021/11/12 12:07:16;;;;;;;0.80;0.80;;;3.60;99.90;;;;;;5058811;28;20556;-70
2021/11/12 12:10:02;;;;;;;0.70;0.70;;;3.60;99.90;;;;;;5089700;28;20200;-70
2021/11/12 12:12:30;;;;;;;0.60;0.60;;;3.50;99.90;;;;;;5071848;28;20250;-70
2021/11/12 12:15:05;;;;;;;0.68;0.68;;;3.50;99.90;;;;;;5090970;28;20600;-70
2021/11/12 12:17:38;;;;;;;0.50;0.50;;;3.50;99.90;;;;;;5089525;28;20569;-68
2021/11/12 12:20:12;;;;;;;0.73;0.73;;;3.50;99.90;;;;;;5072856;28;20208;-69
2021/11/12 12:43:26;;;;;;;0.50;0.50;;;3.50;99.90;;;;;;5073466;28;20208;-70
2021/11/12 13:25:37;;;;;;;0.70;0.70;;;3.00;99.90;;;;;;5092713;28;20215;-70
2021/11/12 13:28:26;;;;;;;0.68;0.68;;;3.00;99.90;;;;;;5093785;28;20666;-69
2021/11/12 13:31:08;;;;;;;0.50;0.50;;;2.90;99.90;;;;;;5093871;28;20250;-70
2021/11/12 13:33:37;;;;;;;0.70;0.70;;;2.90;99.90;;;;;;5092289;28;20199;-70
2021/11/12 13:36:08;;;;;;;0.70;0.70;;;2.90;99.90;;;;;;5093697;28;20204;-70
2021/11/12 13:38:56;;;;;;;0.70;0.70;;;2.90;99.90;;;;;;5092439;28;20658;-69
2021/11/12 13:41:25;;;;;;;14.13;2.88;;;2.90;99.90;;;;;;5075004;28;20208;-70
2021/11/12 13:43:59;;;;;;;0.70;0.70;;;2.90;99.90;;;;;;5091497;28;20250;-71
2021/11/12 13:46:25;;;;;;;0.60;0.60;;;2.80;99.90;;;;;;5092781;28;20218;-70
2021/11/12 13:48:53;;;;;;;0.57;0.57;;;2.80;99.90;;;;;;5093525;28;20204;-70
2021/11/12 13:51:30;;;;;;;0.50;0.50;;;2.70;99.90;;;;;;5075534;28;20655;-69
2021/11/12 13:53:57;;;;;;;0.60;0.60;;;2.70;99.90;;;;;;5093203;28;20642;-71
2021/11/12 13:56:24;;;;;;;0.65;0.65;;;2.60;99.90;;;;;;5093293;28;20208;-72
2021/11/12 13:59:14;;;;;;;0.60;0.60;;;2.60;99.90;;;;;;5091969;28;20292;-72
2021/11/12 14:01:40;;;;;;;0.60;0.60;;;2.50;99.90;;;;;;5090564;28;20215;-71
2021/11/12 14:04:28;;;;;;;0.60;0.60;;;2.40;99.90;;;;;;5093467;28;20536;-74
2021/11/12 14:06:55;;;;;;;0.82;0.82;;;2.40;99.90;;;;;;5091408;28;20301;-70
2021/11/12 14:09:23;;;;;;;0.65;0.65;;;2.30;99.90;;;;;;5093228;28;20726;-70
2021/11/12 14:12:12;;;;;;;0.70;0.70;;;2.20;99.90;;;;;;5092581;28;20311;-70
2021/11/12 14:14:40;;;;;;;0.70;0.70;;;2.10;99.90;;;;;;5075222;28;20687;-70
2021/11/12 14:17:27;;;;;;;0.50;0.50;;;2.00;99.90;;;;;;5092856;28;20292;-70
2021/11/12 14:20:27;;;;;;;0.60;0.60;;;1.90;99.90;;;;;;5076241;28;20622;-70
2021/11/12 14:23:18;;;;;;;0.70;0.70;;;1.90;99.90;;;;;;5078222;28;20219;-70
2021/11/12 14:28:45;;;;;;;0.70;0.70;;;1.80;99.90;;;;;;5091477;28;20196;-70
2021/11/12 14:31:37;;;;;;;0.60;0.60;;;1.80;99.90;;;;;;5074227;28;20684;-71
2021/11/12 14:34:57;;;;;;;0.60;0.60;;;1.70;99.90;;;;;;5091779;28;20204;-71
2021/11/12 14:36:58;;;;;;;4.68;2.03;;;1.70;99.90;;;;;;5077751;28;20736;-71
2021/11/12 14:48:14;;;;;;;0.60;0.60;;;1.50;99.90;;;;;;5091239;28;20276;-70
2021/11/12 14:53:07;;;;;;;0.63;0.63;;;1.30;99.90;;;;;;5075038;28;20560;-70
2021/11/12 14:55:34;;;;;;;0.60;0.60;;;1.20;99.90;;;;;;5074293;28;20224;-69
2021/11/12 14:58:00;;;;;;;0.70;0.70;;;1.20;99.90;;;;;;5090764;28;20210;-70
2021/11/12 15:00:27;;;;;;;0.60;0.60;;;1.10;99.90;;;;;;5092070;28;20569;-71
2021/11/12 15:02:53;;;;;;;0.68;0.68;;;1.00;99.90;;;;;;5092240;28;20721;-71
2021/11/12 15:05:21;;;;;;;0.80;0.80;;;1.00;99.90;;;;;;5092680;28;20299;-70
2021/11/12 15:08:00;;;;;;;0.70;0.70;;;1.00;99.90;;;;;;5072248;28;20227;-71
2021/11/12 15:10:28;;;;;;;0.60;0.60;;;0.90;99.90;;;;;;5091741;28;20212;-71
2021/11/12 15:12:54;;;;;;;0.70;0.70;;;0.90;99.90;;;;;;5089605;28;20207;-71
2021/11/12 15:15:21;;;;;;;0.70;0.70;;;0.90;99.90;;;;;;5071877;28;20204;-70
2021/11/12 15:17:50;;;;;;;0.70;0.70;;;0.80;99.90;;;;;;5073514;28;20656;-72
2021/11/12 15:20:16;;;;;;;0.70;0.70;;;0.80;99.90;;;;;;5073596;28;20281;-70
2021/11/12 15:27:59;;;;;;;0.70;0.70;;;0.70;99.90;;;;;;5073621;28;20196;-71
2021/11/12 15:30:32;;;;;;;0.68;0.68;;;0.80;99.90;;;;;;5072686;28;20572;-70
2021/11/12 15:33:03;;;;;;;0.70;0.70;;;0.70;99.90;;;;;;5072177;28;20681;-71
2021/11/12 15:35:30;;;;;;;0.80;0.80;;;0.70;99.90;;;;;;5090135;28;20204;-70
2021/11/12 15:40:33;;;;;;;0.70;0.70;;;0.70;99.90;;;;;;5091439;28;20210;-71
2021/11/12 15:43:11;;;;;;;0.60;0.60;;;0.70;99.90;;;;;;5091575;28;20283;-71
2021/11/12 15:46:06;;;;;;;0.90;0.90;;;0.60;99.90;;;;;;5071942;28;20281;-70
2021/11/12 15:48:27;;;;;;;0.70;0.70;;;0.60;99.90;;;;;;5090656;28;20208;-73
2021/11/12 15:56:33;;;;;;;0.70;0.70;;;0.50;99.90;;;;;;5091264;28;20208;-69
2021/11/12 16:10:05;;;;;;;0.65;0.65;;;0.40;99.90;;;;;;5090022;28;20264;-70
2021/11/12 16:25:23;;;;;;;0.70;0.70;;;0.40;99.90;;;;;;5080056;28;20266;-70
2021/11/12 16:28:00;;;;;;;0.70;0.70;;;0.30;99.90;;;;;;5095239;28;20215;-71
2021/11/12 16:30:31;;;;;;;0.70;0.70;;;0.30;99.90;;;;;;5094970;28;20192;-71
2021/11/12 16:32:58;;;;;;;0.80;0.80;;;0.30;99.90;;;;;;5095069;28;20226;-72
2021/11/12 16:35:27;;;;;;;0.60;0.60;;;0.30;99.90;;;;;;5076487;28;20200;-70
2021/11/12 16:38:02;;;;;;;0.73;0.73;;;0.30;99.90;;;;;;5094965;28;20204;-72
2021/11/12 16:40:37;;;;;;;0.50;0.50;;;0.30;99.90;;;;;;5094692;28;20677;-73
2021/11/12 16:43:32;;;;;;;0.90;0.90;;;0.30;99.90;;;;;;5094927;28;20204;-72
2021/11/12 16:46:10;;;;;;;0.60;0.60;;;0.20;99.90;;;;;;5076300;28;20667;-71
2021/11/12 16:56:36;;;;;;;0.70;0.70;;;0.20;99.90;;;;;;5094519;28;20238;-71
2021/11/12 17:14:25;;;;;;;0.70;0.70;;;0.20;99.90;;;;;;5094263;28;20207;-71
2021/11/12 17:46:47;;;;;;;0.50;0.50;;;0.10;99.90;;;;;;5093310;28;20358;-71
2021/11/12 17:49:20;;;;;;;0.63;0.63;;;0.20;99.90;;;;;;5093523;28;20226;-71
2021/11/12 17:52:03;;;;;;;1.00;1.00;;;0.20;99.90;;;;;;5075319;28;20583;-71
2021/11/12 18:02:40;;;;;;;1.27;1.05;;;0.20;99.90;;;;;;5092149;28;20206;-71
2021/11/12 21:45:45;;;;;;;0.60;0.60;;;1.10;99.90;;;;;;5092666;28;20227;-73
2021/11/12 21:48:11;;;;;;;0.60;0.60;;;1.10;99.90;;;;;;5091660;28;20637;-73
2021/11/12 21:50:38;;;;;;;0.60;0.60;;;1.20;99.90;;;;;;5093318;28;20253;-73
2021/11/12 21:53:05;;;;;;;0.70;0.70;;;1.20;99.90;;;;;;5093580;28;20621;-72
2021/11/12 21:55:32;;;;;;;0.80;0.80;;;1.20;99.90;;;;;;5093675;28;20265;-74
2021/11/12 21:57:59;;;;;;;0.70;0.70;;;1.30;99.90;;;;;;5073823;28;20196;-73
2021/11/12 22:00:26;;;;;;;0.70;0.70;;;1.40;99.90;;;;;;5074966;28;20702;-72
2021/11/12 22:02:52;;;;;;;0.68;0.68;;;1.40;99.90;;;;;;5073637;28;20257;-73
2021/11/12 22:05:18;;;;;;;0.60;0.60;;;1.50;99.90;;;;;;5091510;28;20204;-73
2021/11/12 22:07:43;;;;;;;2.35;1.23;;;1.50;99.90;;;;;;5092743;28;20256;-73
2021/11/12 22:10:09;;;;;;;0.65;0.65;;;1.50;99.90;;;;;;5074875;28;20273;-72
2021/11/12 22:12:36;;;;;;;0.70;0.70;;;1.50;99.90;;;;;;5102155;28;20244;-73
2021/11/12 22:15:03;;;;;;;0.70;0.70;;;1.60;99.90;;;;;;5099273;28;20283;-73
2021/11/12 22:17:29;;;;;;;0.60;0.60;;;1.60;99.90;;;;;;5092676;28;20204;-73
2021/11/12 22:19:54;;;;;;;0.68;0.68;;;1.60;99.90;;;;;;5073402;28;20231;-72
2021/11/12 22:22:20;;;;;;;0.70;0.70;;;1.60;99.90;;;;;;5072794;28;20674;-73
2021/11/12 22:24:46;;;;;;;0.70;0.70;;;1.50;99.90;;;;;;5074594;28;20215;-74
2021/11/12 22:27:12;;;;;;;0.60;0.60;;;1.60;99.90;;;;;;5092634;28;20259;-73
2021/11/12 22:29:38;;;;;;;0.60;0.60;;;1.60;99.90;;;;;;5091221;28;20200;-73
2021/11/12 22:32:04;;;;;;;0.77;0.77;;;1.60;99.90;;;;;;5091939;28;20557;-73
2021/11/12 22:34:30;;;;;;;0.70;0.70;;;1.60;99.90;;;;;;5092358;28;20187;-73
2021/11/12 22:36:56;;;;;;;0.60;0.60;;;1.60;99.90;;;;;;5092739;28;20200;-73
2021/11/12 22:39:22;;;;;;;0.50;0.50;;;1.70;99.90;;;;;;5109384;28;20230;-73
2021/11/12 22:41:50;;;;;;;0.80;0.80;;;1.70;99.90;;;;;;5091743;28;20287;-72
2021/11/12 22:44:17;;;;;;;0.60;0.60;;;1.80;99.90;;;;;;5092760;28;20557;-72
2021/11/12 22:46:43;;;;;;;0.68;0.68;;;1.80;99.90;;;;;;5092560;28;20649;-72
2021/11/12 22:49:10;;;;;;;0.70;0.70;;;1.80;99.90;;;;;;5092341;28;20655;-72
2021/11/12 22:51:37;;;;;;;0.52;0.52;;;1.80;99.90;;;;;;5091704;28;20257;-74
2021/11/12 22:54:04;;;;;;;0.60;0.60;;;1.90;99.90;;;;;;5072762;28;20231;-74
2021/11/12 22:56:31;;;;;;;0.60;0.60;;;1.90;99.90;;;;;;5072686;28;20208;-73
2021/11/12 22:58:57;;;;;;;0.60;0.60;;;1.80;99.90;;;;;;5092157;28;20215;-73
2021/11/12 23:01:27;;;;;;;0.73;0.73;;;1.80;99.90;;;;;;5091783;28;20212;-73
2021/11/12 23:03:53;;;;;;;0.63;0.63;;;1.80;99.90;;;;;;5072800;28;20208;-73
2021/11/12 23:06:19;;;;;;;0.63;0.63;;;1.80;99.90;;;;;;5091365;28;20216;-73
2021/11/12 23:08:45;;;;;;;0.60;0.60;;;1.90;99.90;;;;;;5092168;28;20276;-72